sensor_id;sensor_type;location;lat;lon;timestamp;P1;durP1;ratioP1;P2;durP2;ratioP2
2706;SDS011;7819;48.046;7.642;2022-07-22T00:01:53;5.20;;;4.80;;
2706;SDS011;7819;48.046;7.642;2022-07-22T00:04:18;4.40;;;4.07;;
2706;SDS011;7819;48.046;7.642;2022-07-22T00:06:44;5.77;;;4.67;;
2706;SDS011;7819;48.046;7.642;2022-07-22T00:09:09;4.50;;;4.10;;
2706;SDS011;7819;48.046;7.642;2022-07-22T00:11:34;5.07;;;4.57;;
2706;SDS011;7819;48.046;7.642;2022-07-22T00:14:00;4.90;;;4.50;;
2706;SDS011;7819;48.046;7.642;2022-07-22T00:16:25;5.23;;;4.73;;
2706;SDS011;7819;48.046;7.642;2022-07-22T00:18:50;5.20;;;4.70;;
2706;SDS011;7819;48.046;7.642;2022-07-22T00:21:15;5.47;;;5.03;;
2706;SDS011;7819;48.046;7.642;2022-07-22T00:23:40;5.10;;;4.70;;
2706;SDS011;7819;48.046;7.642;2022-07-22T00:26:06;6.60;;;4.60;;
2706;SDS011;7819;48.046;7.642;2022-07-22T00:28:31;5.77;;;5.00;;
2706;SDS011;7819;48.046;7.642;2022-07-22T00:30:57;4.53;;;4.13;;
2706;SDS011;7819;48.046;7.642;2022-07-22T00:33:23;5.30;;;4.90;;
2706;SDS011;7819;48.046;7.642;2022-07-22T00:35:48;4.63;;;4.23;;
2706;SDS011;7819;48.046;7.642;2022-07-22T00:38:14;3.97;;;3.67;;
2706;SDS011;7819;48.046;7.642;2022-07-22T00:40:39;5.30;;;4.80;;
2706;SDS011;7819;48.046;7.642;2022-07-22T00:43:04;5.37;;;4.87;;
2706;SDS011;7819;48.046;7.642;2022-07-22T00:45:29;5.40;;;4.83;;
2706;SDS011;7819;48.046;7.642;2022-07-22T00:47:55;6.83;;;5.60;;
2706;SDS011;7819;48.046;7.642;2022-07-22T00:50:20;6.77;;;4.87;;
2706;SDS011;7819;48.046;7.642;2022-07-22T00:52:46;6.03;;;4.80;;
2706;SDS011;7819;48.046;7.642;2022-07-22T00:55:12;6.07;;;4.70;;
2706;SDS011;7819;48.046;7.642;2022-07-22T00:57:37;5.20;;;4.70;;
2706;SDS011;7819;48.046;7.642;2022-07-22T01:00:04;5.70;;;4.57;;
2706;SDS011;7819;48.046;7.642;2022-07-22T01:02:30;5.23;;;4.83;;
2706;SDS011;7819;48.046;7.642;2022-07-22T01:04:55;4.83;;;4.33;;
2706;SDS011;7819;48.046;7.642;2022-07-22T01:07:21;5.23;;;4.80;;
2706;SDS011;7819;48.046;7.642;2022-07-22T01:09:46;6.77;;;4.93;;
2706;SDS011;7819;48.046;7.642;2022-07-22T01:12:12;5.13;;;4.23;;
2706;SDS011;7819;48.046;7.642;2022-07-22T01:14:37;5.23;;;4.73;;
2706;SDS011;7819;48.046;7.642;2022-07-22T01:17:02;4.90;;;4.50;;
2706;SDS011;7819;48.046;7.642;2022-07-22T01:19:28;5.10;;;4.60;;
2706;SDS011;7819;48.046;7.642;2022-07-22T01:21:53;5.47;;;4.97;;
2706;SDS011;7819;48.046;7.642;2022-07-22T01:24:18;5.93;;;5.53;;
2706;SDS011;7819;48.046;7.642;2022-07-22T01:26:44;5.77;;;5.27;;
2706;SDS011;7819;48.046;7.642;2022-07-22T01:29:09;5.23;;;4.60;;
2706;SDS011;7819;48.046;7.642;2022-07-22T01:31:34;5.97;;;5.33;;
2706;SDS011;7819;48.046;7.642;2022-07-22T01:33:59;5.00;;;4.70;;
2706;SDS011;7819;48.046;7.642;2022-07-22T01:36:25;6.23;;;5.73;;
2706;SDS011;7819;48.046;7.642;2022-07-22T01:38:50;5.33;;;4.90;;
2706;SDS011;7819;48.046;7.642;2022-07-22T01:41:15;6.27;;;4.80;;
2706;SDS011;7819;48.046;7.642;2022-07-22T01:43:40;5.70;;;5.20;;
2706;SDS011;7819;48.046;7.642;2022-07-22T01:46:05;5.90;;;5.40;;
2706;SDS011;7819;48.046;7.642;2022-07-22T01:48:31;5.63;;;5.13;;
2706;SDS011;7819;48.046;7.642;2022-07-22T01:50:56;5.77;;;5.27;;
2706;SDS011;7819;48.046;7.642;2022-07-22T01:53:21;6.43;;;5.00;;
2706;SDS011;7819;48.046;7.642;2022-07-22T01:55:47;6.13;;;5.63;;
2706;SDS011;7819;48.046;7.642;2022-07-22T01:58:12;5.70;;;5.20;;
2706;SDS011;7819;48.046;7.642;2022-07-22T02:00:37;5.63;;;5.13;;
2706;SDS011;7819;48.046;7.642;2022-07-22T02:03:02;5.77;;;4.53;;
2706;SDS011;7819;48.046;7.642;2022-07-22T02:05:27;5.40;;;4.90;;
2706;SDS011;7819;48.046;7.642;2022-07-22T02:07:53;8.33;;;7.57;;
2706;SDS011;7819;48.046;7.642;2022-07-22T02:10:18;5.60;;;5.10;;
2706;SDS011;7819;48.046;7.642;2022-07-22T02:12:43;5.57;;;5.07;;
2706;SDS011;7819;48.046;7.642;2022-07-22T02:15:09;7.03;;;6.00;;
2706;SDS011;7819;48.046;7.642;2022-07-22T02:17:35;6.27;;;5.70;;
2706;SDS011;7819;48.046;7.642;2022-07-22T02:20:00;5.53;;;5.10;;
2706;SDS011;7819;48.046;7.642;2022-07-22T02:22:25;6.00;;;5.40;;
2706;SDS011;7819;48.046;7.642;2022-07-22T02:24:50;6.23;;;5.63;;
2706;SDS011;7819;48.046;7.642;2022-07-22T02:27:16;9.70;;;6.20;;
2706;SDS011;7819;48.046;7.642;2022-07-22T02:29:41;6.00;;;5.60;;
2706;SDS011;7819;48.046;7.642;2022-07-22T02:32:06;6.03;;;5.53;;
2706;SDS011;7819;48.046;7.642;2022-07-22T02:34:31;6.50;;;6.00;;
2706;SDS011;7819;48.046;7.642;2022-07-22T02:36:56;5.53;;;5.07;;
2706;SDS011;7819;48.046;7.642;2022-07-22T02:39:22;6.00;;;5.50;;
2706;SDS011;7819;48.046;7.642;2022-07-22T02:41:47;6.27;;;5.77;;
2706;SDS011;7819;48.046;7.642;2022-07-22T02:44:12;6.23;;;5.73;;
2706;SDS011;7819;48.046;7.642;2022-07-22T02:46:37;6.43;;;5.83;;
2706;SDS011;7819;48.046;7.642;2022-07-22T02:49:02;6.63;;;6.07;;
2706;SDS011;7819;48.046;7.642;2022-07-22T02:51:29;6.30;;;5.70;;
2706;SDS011;7819;48.046;7.642;2022-07-22T02:53:54;9.73;;;5.77;;
2706;SDS011;7819;48.046;7.642;2022-07-22T02:56:19;6.93;;;6.40;;
2706;SDS011;7819;48.046;7.642;2022-07-22T02:58:45;6.37;;;5.77;;
2706;SDS011;7819;48.046;7.642;2022-07-22T03:01:11;5.83;;;5.33;;
2706;SDS011;7819;48.046;7.642;2022-07-22T03:03:37;6.33;;;5.73;;
2706;SDS011;7819;48.046;7.642;2022-07-22T03:06:02;8.80;;;5.73;;
2706;SDS011;7819;48.046;7.642;2022-07-22T03:08:27;6.33;;;5.83;;
2706;SDS011;7819;48.046;7.642;2022-07-22T03:10:52;6.53;;;5.50;;
2706;SDS011;7819;48.046;7.642;2022-07-22T03:13:18;5.87;;;5.30;;
2706;SDS011;7819;48.046;7.642;2022-07-22T03:15:43;7.57;;;6.10;;
2706;SDS011;7819;48.046;7.642;2022-07-22T03:18:08;5.97;;;5.47;;
2706;SDS011;7819;48.046;7.642;2022-07-22T03:20:33;6.10;;;5.60;;
2706;SDS011;7819;48.046;7.642;2022-07-22T03:22:59;7.47;;;6.87;;
2706;SDS011;7819;48.046;7.642;2022-07-22T03:25:24;6.97;;;6.47;;
2706;SDS011;7819;48.046;7.642;2022-07-22T03:27:49;6.03;;;5.53;;
2706;SDS011;7819;48.046;7.642;2022-07-22T03:30:14;6.70;;;5.53;;
2706;SDS011;7819;48.046;7.642;2022-07-22T03:32:40;7.40;;;5.80;;
2706;SDS011;7819;48.046;7.642;2022-07-22T03:35:09;10.93;;;6.30;;
2706;SDS011;7819;48.046;7.642;2022-07-22T03:37:34;7.50;;;6.73;;
2706;SDS011;7819;48.046;7.642;2022-07-22T03:40:00;9.00;;;7.03;;
2706;SDS011;7819;48.046;7.642;2022-07-22T03:42:25;5.90;;;5.40;;
2706;SDS011;7819;48.046;7.642;2022-07-22T03:44:50;7.50;;;6.80;;
2706;SDS011;7819;48.046;7.642;2022-07-22T03:47:19;6.50;;;5.90;;
2706;SDS011;7819;48.046;7.642;2022-07-22T03:49:44;7.17;;;6.23;;
2706;SDS011;7819;48.046;7.642;2022-07-22T03:52:09;5.47;;;5.07;;
2706;SDS011;7819;48.046;7.642;2022-07-22T03:54:35;7.53;;;5.50;;
2706;SDS011;7819;48.046;7.642;2022-07-22T03:57:00;5.87;;;5.27;;
2706;SDS011;7819;48.046;7.642;2022-07-22T03:59:25;6.00;;;5.50;;
2706;SDS011;7819;48.046;7.642;2022-07-22T04:01:50;6.70;;;6.10;;
2706;SDS011;7819;48.046;7.642;2022-07-22T04:04:15;6.67;;;6.10;;
2706;SDS011;7819;48.046;7.642;2022-07-22T04:06:40;6.77;;;6.27;;
2706;SDS011;7819;48.046;7.642;2022-07-22T04:09:05;6.37;;;5.77;;
2706;SDS011;7819;48.046;7.642;2022-07-22T04:11:31;5.83;;;5.23;;
2706;SDS011;7819;48.046;7.642;2022-07-22T04:13:56;7.13;;;6.43;;
2706;SDS011;7819;48.046;7.642;2022-07-22T04:16:21;7.17;;;6.17;;
2706;SDS011;7819;48.046;7.642;2022-07-22T04:18:46;8.27;;;7.30;;
2706;SDS011;7819;48.046;7.642;2022-07-22T04:21:11;7.45;;;6.45;;
2706;SDS011;7819;48.046;7.642;2022-07-22T04:23:36;8.03;;;7.33;;
2706;SDS011;7819;48.046;7.642;2022-07-22T04:26:04;8.97;;;8.17;;
2706;SDS011;7819;48.046;7.642;2022-07-22T04:28:29;10.00;;;8.57;;
2706;SDS011;7819;48.046;7.642;2022-07-22T04:30:57;10.00;;;9.20;;
2706;SDS011;7819;48.046;7.642;2022-07-22T04:33:22;7.50;;;6.70;;
2706;SDS011;7819;48.046;7.642;2022-07-22T04:35:47;7.37;;;6.60;;
2706;SDS011;7819;48.046;7.642;2022-07-22T04:38:12;6.03;;;5.40;;
2706;SDS011;7819;48.046;7.642;2022-07-22T04:40:38;6.77;;;6.17;;
2706;SDS011;7819;48.046;7.642;2022-07-22T04:43:03;7.33;;;6.47;;
2706;SDS011;7819;48.046;7.642;2022-07-22T04:45:28;8.63;;;7.80;;
2706;SDS011;7819;48.046;7.642;2022-07-22T04:47:53;7.60;;;6.90;;
2706;SDS011;7819;48.046;7.642;2022-07-22T04:50:18;8.53;;;7.67;;
2706;SDS011;7819;48.046;7.642;2022-07-22T04:52:44;7.70;;;7.00;;
2706;SDS011;7819;48.046;7.642;2022-07-22T04:55:10;8.17;;;7.47;;
2706;SDS011;7819;48.046;7.642;2022-07-22T04:57:35;8.67;;;7.87;;
2706;SDS011;7819;48.046;7.642;2022-07-22T05:00:00;9.00;;;8.03;;
2706;SDS011;7819;48.046;7.642;2022-07-22T05:02:25;8.87;;;8.07;;
2706;SDS011;7819;48.046;7.642;2022-07-22T05:04:50;8.13;;;7.20;;
2706;SDS011;7819;48.046;7.642;2022-07-22T05:07:15;8.23;;;7.53;;
2706;SDS011;7819;48.046;7.642;2022-07-22T05:09:41;8.83;;;7.60;;
2706;SDS011;7819;48.046;7.642;2022-07-22T05:12:06;10.00;;;9.00;;
2706;SDS011;7819;48.046;7.642;2022-07-22T05:14:31;7.77;;;7.07;;
2706;SDS011;7819;48.046;7.642;2022-07-22T05:16:57;8.60;;;7.90;;
2706;SDS011;7819;48.046;7.642;2022-07-22T05:19:22;9.70;;;6.90;;
2706;SDS011;7819;48.046;7.642;2022-07-22T05:21:47;9.23;;;8.30;;
2706;SDS011;7819;48.046;7.642;2022-07-22T05:24:12;7.63;;;6.93;;
2706;SDS011;7819;48.046;7.642;2022-07-22T05:26:38;8.27;;;7.60;;
2706;SDS011;7819;48.046;7.642;2022-07-22T05:29:03;7.90;;;7.20;;
2706;SDS011;7819;48.046;7.642;2022-07-22T05:31:28;7.53;;;6.83;;
2706;SDS011;7819;48.046;7.642;2022-07-22T05:33:53;7.27;;;6.57;;
2706;SDS011;7819;48.046;7.642;2022-07-22T05:36:19;8.87;;;7.80;;
2706;SDS011;7819;48.046;7.642;2022-07-22T05:38:44;8.87;;;8.07;;
2706;SDS011;7819;48.046;7.642;2022-07-22T05:41:09;10.63;;;8.25;;
2706;SDS011;7819;48.046;7.642;2022-07-22T05:43:34;10.57;;;9.53;;
2706;SDS011;7819;48.046;7.642;2022-07-22T05:45:59;9.63;;;8.73;;
2706;SDS011;7819;48.046;7.642;2022-07-22T05:48:25;10.43;;;9.47;;
2706;SDS011;7819;48.046;7.642;2022-07-22T05:50:50;10.10;;;9.20;;
2706;SDS011;7819;48.046;7.642;2022-07-22T05:53:15;10.20;;;9.20;;
2706;SDS011;7819;48.046;7.642;2022-07-22T05:55:40;11.77;;;10.67;;
2706;SDS011;7819;48.046;7.642;2022-07-22T05:58:05;12.73;;;11.63;;
2706;SDS011;7819;48.046;7.642;2022-07-22T06:00:30;10.73;;;9.77;;
2706;SDS011;7819;48.046;7.642;2022-07-22T06:02:56;10.40;;;9.40;;
2706;SDS011;7819;48.046;7.642;2022-07-22T06:05:21;10.37;;;9.37;;
2706;SDS011;7819;48.046;7.642;2022-07-22T06:07:46;11.60;;;10.50;;
2706;SDS011;7819;48.046;7.642;2022-07-22T06:10:11;12.27;;;9.50;;
2706;SDS011;7819;48.046;7.642;2022-07-22T06:12:36;9.20;;;8.40;;
2706;SDS011;7819;48.046;7.642;2022-07-22T06:15:02;10.93;;;9.40;;
2706;SDS011;7819;48.046;7.642;2022-07-22T06:17:27;8.93;;;8.03;;
2706;SDS011;7819;48.046;7.642;2022-07-22T06:19:53;10.40;;;9.40;;
2706;SDS011;7819;48.046;7.642;2022-07-22T06:22:18;9.97;;;8.97;;
2706;SDS011;7819;48.046;7.642;2022-07-22T06:24:43;13.77;;;9.77;;
2706;SDS011;7819;48.046;7.642;2022-07-22T06:27:09;10.03;;;8.93;;
2706;SDS011;7819;48.046;7.642;2022-07-22T06:29:34;10.43;;;9.30;;
2706;SDS011;7819;48.046;7.642;2022-07-22T06:31:59;11.03;;;9.93;;
2706;SDS011;7819;48.046;7.642;2022-07-22T06:34:24;9.90;;;8.03;;
2706;SDS011;7819;48.046;7.642;2022-07-22T06:36:49;13.27;;;8.40;;
2706;SDS011;7819;48.046;7.642;2022-07-22T06:39:15;9.60;;;8.60;;
2706;SDS011;7819;48.046;7.642;2022-07-22T06:41:40;9.20;;;8.37;;
2706;SDS011;7819;48.046;7.642;2022-07-22T06:44:05;11.10;;;9.73;;
2706;SDS011;7819;48.046;7.642;2022-07-22T06:46:30;9.53;;;8.53;;
2706;SDS011;7819;48.046;7.642;2022-07-22T06:48:55;12.93;;;8.83;;
2706;SDS011;7819;48.046;7.642;2022-07-22T06:51:21;9.87;;;8.97;;
2706;SDS011;7819;48.046;7.642;2022-07-22T06:53:46;9.70;;;8.80;;
2706;SDS011;7819;48.046;7.642;2022-07-22T06:56:11;11.20;;;10.00;;
2706;SDS011;7819;48.046;7.642;2022-07-22T06:58:37;10.10;;;9.10;;
2706;SDS011;7819;48.046;7.642;2022-07-22T07:01:02;10.70;;;8.57;;
2706;SDS011;7819;48.046;7.642;2022-07-22T07:03:27;9.87;;;8.97;;
2706;SDS011;7819;48.046;7.642;2022-07-22T07:05:52;9.30;;;8.33;;
2706;SDS011;7819;48.046;7.642;2022-07-22T07:08:17;9.60;;;8.27;;
2706;SDS011;7819;48.046;7.642;2022-07-22T07:10:43;11.03;;;9.93;;
2706;SDS011;7819;48.046;7.642;2022-07-22T07:13:08;10.90;;;9.90;;
2706;SDS011;7819;48.046;7.642;2022-07-22T07:15:33;10.00;;;8.93;;
2706;SDS011;7819;48.046;7.642;2022-07-22T07:17:58;11.67;;;10.37;;
2706;SDS011;7819;48.046;7.642;2022-07-22T07:20:24;9.93;;;8.93;;
2706;SDS011;7819;48.046;7.642;2022-07-22T07:22:49;11.10;;;9.90;;
2706;SDS011;7819;48.046;7.642;2022-07-22T07:25:14;10.57;;;9.57;;
2706;SDS011;7819;48.046;7.642;2022-07-22T07:27:40;10.63;;;9.63;;
2706;SDS011;7819;48.046;7.642;2022-07-22T07:30:05;10.50;;;9.50;;
2706;SDS011;7819;48.046;7.642;2022-07-22T07:32:30;11.53;;;9.67;;
2706;SDS011;7819;48.046;7.642;2022-07-22T07:34:56;9.97;;;9.03;;
2706;SDS011;7819;48.046;7.642;2022-07-22T07:37:21;11.80;;;10.70;;
2706;SDS011;7819;48.046;7.642;2022-07-22T07:39:46;10.40;;;9.40;;
2706;SDS011;7819;48.046;7.642;2022-07-22T07:42:11;10.30;;;9.40;;
2706;SDS011;7819;48.046;7.642;2022-07-22T07:44:36;10.93;;;9.83;;
2706;SDS011;7819;48.046;7.642;2022-07-22T07:47:02;10.80;;;9.77;;
2706;SDS011;7819;48.046;7.642;2022-07-22T07:49:27;10.00;;;9.07;;
2706;SDS011;7819;48.046;7.642;2022-07-22T07:51:52;12.47;;;9.60;;
2706;SDS011;7819;48.046;7.642;2022-07-22T07:54:17;9.93;;;9.03;;
2706;SDS011;7819;48.046;7.642;2022-07-22T07:56:43;10.60;;;9.50;;
2706;SDS011;7819;48.046;7.642;2022-07-22T07:59:08;9.37;;;8.40;;
2706;SDS011;7819;48.046;7.642;2022-07-22T08:01:33;9.63;;;8.73;;
2706;SDS011;7819;48.046;7.642;2022-07-22T08:03:58;10.47;;;9.40;;
2706;SDS011;7819;48.046;7.642;2022-07-22T08:06:23;9.63;;;8.60;;
2706;SDS011;7819;48.046;7.642;2022-07-22T08:08:49;11.20;;;9.57;;
2706;SDS011;7819;48.046;7.642;2022-07-22T08:11:17;10.90;;;9.80;;
2706;SDS011;7819;48.046;7.642;2022-07-22T08:13:42;10.37;;;9.40;;
2706;SDS011;7819;48.046;7.642;2022-07-22T08:16:08;10.50;;;9.50;;
2706;SDS011;7819;48.046;7.642;2022-07-22T08:18:33;10.83;;;9.93;;
2706;SDS011;7819;48.046;7.642;2022-07-22T08:20:58;9.87;;;8.80;;
2706;SDS011;7819;48.046;7.642;2022-07-22T08:23:23;11.37;;;10.27;;
2706;SDS011;7819;48.046;7.642;2022-07-22T08:25:48;9.48;;;8.68;;
2706;SDS011;7819;48.046;7.642;2022-07-22T08:28:14;11.07;;;9.10;;
2706;SDS011;7819;48.046;7.642;2022-07-22T08:30:39;8.77;;;7.97;;
2706;SDS011;7819;48.046;7.642;2022-07-22T08:33:05;8.90;;;8.07;;
2706;SDS011;7819;48.046;7.642;2022-07-22T08:35:30;9.80;;;8.90;;
2706;SDS011;7819;48.046;7.642;2022-07-22T08:37:55;9.97;;;9.17;;
2706;SDS011;7819;48.046;7.642;2022-07-22T08:40:21;9.73;;;8.80;;
2706;SDS011;7819;48.046;7.642;2022-07-22T08:42:46;8.87;;;8.00;;
2706;SDS011;7819;48.046;7.642;2022-07-22T08:45:13;9.50;;;8.50;;
2706;SDS011;7819;48.046;7.642;2022-07-22T08:47:38;9.10;;;8.20;;
2706;SDS011;7819;48.046;7.642;2022-07-22T08:50:04;9.30;;;8.50;;
2706;SDS011;7819;48.046;7.642;2022-07-22T08:52:29;10.23;;;7.83;;
2706;SDS011;7819;48.046;7.642;2022-07-22T08:54:55;8.00;;;7.30;;
2706;SDS011;7819;48.046;7.642;2022-07-22T08:57:20;8.93;;;8.03;;
2706;SDS011;7819;48.046;7.642;2022-07-22T08:59:49;9.20;;;8.30;;
2706;SDS011;7819;48.046;7.642;2022-07-22T09:02:14;9.97;;;8.97;;
2706;SDS011;7819;48.046;7.642;2022-07-22T09:04:55;9.33;;;8.43;;
2706;SDS011;7819;48.046;7.642;2022-07-22T09:07:28;10.10;;;9.10;;
2706;SDS011;7819;48.046;7.642;2022-07-22T09:09:54;8.60;;;7.70;;
2706;SDS011;7819;48.046;7.642;2022-07-22T09:12:19;11.70;;;8.17;;
2706;SDS011;7819;48.046;7.642;2022-07-22T09:14:48;9.70;;;8.70;;
2706;SDS011;7819;48.046;7.642;2022-07-22T09:19:58;8.37;;;7.50;;
2706;SDS011;7819;48.046;7.642;2022-07-22T09:22:30;9.70;;;7.60;;
2706;SDS011;7819;48.046;7.642;2022-07-22T09:24:55;9.67;;;8.70;;
2706;SDS011;7819;48.046;7.642;2022-07-22T09:27:24;8.13;;;7.30;;
2706;SDS011;7819;48.046;7.642;2022-07-22T09:29:50;8.23;;;7.50;;
2706;SDS011;7819;48.046;7.642;2022-07-22T09:32:15;10.67;;;8.07;;
2706;SDS011;7819;48.046;7.642;2022-07-22T09:34:40;9.63;;;8.73;;
2706;SDS011;7819;48.046;7.642;2022-07-22T09:37:05;9.80;;;7.38;;
2706;SDS011;7819;48.046;7.642;2022-07-22T09:39:31;9.30;;;8.50;;
2706;SDS011;7819;48.046;7.642;2022-07-22T09:41:57;9.13;;;8.00;;
2706;SDS011;7819;48.046;7.642;2022-07-22T09:44:23;7.93;;;7.13;;
2706;SDS011;7819;48.046;7.642;2022-07-22T09:46:48;9.37;;;8.47;;
2706;SDS011;7819;48.046;7.642;2022-07-22T09:49:29;7.60;;;6.90;;
2706;SDS011;7819;48.046;7.642;2022-07-22T09:51:54;7.00;;;6.30;;
2706;SDS011;7819;48.046;7.642;2022-07-22T09:54:20;9.00;;;8.30;;
2706;SDS011;7819;48.046;7.642;2022-07-22T09:56:45;8.20;;;7.40;;
2706;SDS011;7819;48.046;7.642;2022-07-22T09:59:11;8.50;;;7.70;;
2706;SDS011;7819;48.046;7.642;2022-07-22T10:01:36;7.60;;;6.90;;
2706;SDS011;7819;48.046;7.642;2022-07-22T10:04:02;7.40;;;6.80;;
2706;SDS011;7819;48.046;7.642;2022-07-22T10:06:28;7.93;;;7.23;;
2706;SDS011;7819;48.046;7.642;2022-07-22T10:08:54;7.57;;;6.90;;
2706;SDS011;7819;48.046;7.642;2022-07-22T10:11:19;6.77;;;6.20;;
2706;SDS011;7819;48.046;7.642;2022-07-22T10:13:45;7.10;;;6.33;;
2706;SDS011;7819;48.046;7.642;2022-07-22T10:16:11;8.23;;;7.43;;
2706;SDS011;7819;48.046;7.642;2022-07-22T10:18:36;7.40;;;6.80;;
2706;SDS011;7819;48.046;7.642;2022-07-22T10:21:11;7.47;;;6.77;;
2706;SDS011;7819;48.046;7.642;2022-07-22T10:23:36;7.73;;;7.00;;
2706;SDS011;7819;48.046;7.642;2022-07-22T10:26:21;9.77;;;7.10;;
2706;SDS011;7819;48.046;7.642;2022-07-22T10:28:46;6.90;;;6.23;;
2706;SDS011;7819;48.046;7.642;2022-07-22T10:31:19;8.33;;;7.63;;
2706;SDS011;7819;48.046;7.642;2022-07-22T10:33:45;6.87;;;6.17;;
2706;SDS011;7819;48.046;7.642;2022-07-22T10:36:10;5.70;;;5.20;;
2706;SDS011;7819;48.046;7.642;2022-07-22T10:38:36;6.37;;;5.87;;
2706;SDS011;7819;48.046;7.642;2022-07-22T10:41:02;8.67;;;6.30;;
2706;SDS011;7819;48.046;7.642;2022-07-22T10:43:29;7.73;;;6.70;;
2706;SDS011;7819;48.046;7.642;2022-07-22T10:45:58;7.13;;;6.43;;
2706;SDS011;7819;48.046;7.642;2022-07-22T10:50:50;6.70;;;6.20;;
2706;SDS011;7819;48.046;7.642;2022-07-22T10:53:16;7.53;;;7.03;;
2706;SDS011;7819;48.046;7.642;2022-07-22T11:00:58;7.30;;;6.70;;
2706;SDS011;7819;48.046;7.642;2022-07-22T11:03:24;7.00;;;6.43;;
2706;SDS011;7819;48.046;7.642;2022-07-22T11:05:50;7.97;;;7.20;;
2706;SDS011;7819;48.046;7.642;2022-07-22T11:08:15;8.67;;;7.87;;
2706;SDS011;7819;48.046;7.642;2022-07-22T11:10:46;8.30;;;7.53;;
2706;SDS011;7819;48.046;7.642;2022-07-22T11:13:11;8.73;;;8.03;;
2706;SDS011;7819;48.046;7.642;2022-07-22T11:15:36;8.10;;;7.47;;
2706;SDS011;7819;48.046;7.642;2022-07-22T11:18:01;9.57;;;8.10;;
2706;SDS011;7819;48.046;7.642;2022-07-22T11:20:27;7.40;;;6.80;;
2706;SDS011;7819;48.046;7.642;2022-07-22T11:22:52;7.47;;;6.77;;
2706;SDS011;7819;48.046;7.642;2022-07-22T11:25:17;7.37;;;6.70;;
2706;SDS011;7819;48.046;7.642;2022-07-22T11:27:51;7.67;;;6.87;;
2706;SDS011;7819;48.046;7.642;2022-07-22T11:30:22;7.47;;;6.77;;
2706;SDS011;7819;48.046;7.642;2022-07-22T11:32:47;7.13;;;6.50;;
2706;SDS011;7819;48.046;7.642;2022-07-22T11:35:13;7.80;;;7.10;;
2706;SDS011;7819;48.046;7.642;2022-07-22T11:37:38;6.77;;;6.27;;
2706;SDS011;7819;48.046;7.642;2022-07-22T11:40:05;7.27;;;6.57;;
2706;SDS011;7819;48.046;7.642;2022-07-22T11:42:30;7.37;;;6.77;;
2706;SDS011;7819;48.046;7.642;2022-07-22T11:44:55;7.23;;;6.53;;
2706;SDS011;7819;48.046;7.642;2022-07-22T11:47:20;7.60;;;6.90;;
2706;SDS011;7819;48.046;7.642;2022-07-22T11:49:46;7.20;;;6.50;;
2706;SDS011;7819;48.046;7.642;2022-07-22T11:52:13;9.20;;;8.43;;
2706;SDS011;7819;48.046;7.642;2022-07-22T11:54:38;7.03;;;6.43;;
2706;SDS011;7819;48.046;7.642;2022-07-22T11:57:04;7.77;;;7.07;;
2706;SDS011;7819;48.046;7.642;2022-07-22T11:59:30;7.53;;;6.93;;
2706;SDS011;7819;48.046;7.642;2022-07-22T12:01:55;6.83;;;6.20;;
2706;SDS011;7819;48.046;7.642;2022-07-22T12:04:21;8.53;;;7.73;;
2706;SDS011;7819;48.046;7.642;2022-07-22T12:06:47;8.50;;;7.20;;
2706;SDS011;7819;48.046;7.642;2022-07-22T12:09:17;9.00;;;8.33;;
2706;SDS011;7819;48.046;7.642;2022-07-22T12:11:46;7.80;;;7.20;;
2706;SDS011;7819;48.046;7.642;2022-07-22T12:14:12;7.07;;;6.47;;
2706;SDS011;7819;48.046;7.642;2022-07-22T12:16:38;6.93;;;6.33;;
2706;SDS011;7819;48.046;7.642;2022-07-22T12:19:08;8.00;;;7.30;;
2706;SDS011;7819;48.046;7.642;2022-07-22T12:21:35;8.43;;;7.17;;
2706;SDS011;7819;48.046;7.642;2022-07-22T12:24:02;6.53;;;6.00;;
2706;SDS011;7819;48.046;7.642;2022-07-22T12:26:41;8.33;;;7.63;;
2706;SDS011;7819;48.046;7.642;2022-07-22T12:29:15;7.27;;;6.57;;
2706;SDS011;7819;48.046;7.642;2022-07-22T12:31:44;6.40;;;5.80;;
2706;SDS011;7819;48.046;7.642;2022-07-22T12:34:09;7.50;;;6.90;;
2706;SDS011;7819;48.046;7.642;2022-07-22T12:36:35;8.47;;;6.53;;
2706;SDS011;7819;48.046;7.642;2022-07-22T12:39:16;6.57;;;5.97;;
2706;SDS011;7819;48.046;7.642;2022-07-22T12:41:45;7.37;;;6.77;;
2706;SDS011;7819;48.046;7.642;2022-07-22T12:44:15;7.47;;;6.67;;
2706;SDS011;7819;48.046;7.642;2022-07-22T12:46:43;9.00;;;8.20;;
2706;SDS011;7819;48.046;7.642;2022-07-22T12:49:09;6.40;;;5.80;;
2706;SDS011;7819;48.046;7.642;2022-07-22T12:51:35;8.10;;;7.50;;
2706;SDS011;7819;48.046;7.642;2022-07-22T12:54:01;7.50;;;6.83;;
2706;SDS011;7819;48.046;7.642;2022-07-22T12:56:26;6.60;;;6.10;;
2706;SDS011;7819;48.046;7.642;2022-07-22T12:58:51;6.00;;;5.40;;
2706;SDS011;7819;48.046;7.642;2022-07-22T13:01:16;6.57;;;6.07;;
2706;SDS011;7819;48.046;7.642;2022-07-22T13:03:41;6.80;;;6.20;;
2706;SDS011;7819;48.046;7.642;2022-07-22T13:06:06;6.70;;;6.20;;
2706;SDS011;7819;48.046;7.642;2022-07-22T13:08:35;6.67;;;6.07;;
2706;SDS011;7819;48.046;7.642;2022-07-22T13:11:00;8.93;;;8.10;;
2706;SDS011;7819;48.046;7.642;2022-07-22T13:13:25;6.70;;;6.20;;
2706;SDS011;7819;48.046;7.642;2022-07-22T13:15:50;7.70;;;6.93;;
2706;SDS011;7819;48.046;7.642;2022-07-22T13:18:16;7.27;;;6.67;;
2706;SDS011;7819;48.046;7.642;2022-07-22T13:20:41;6.90;;;6.40;;
2706;SDS011;7819;48.046;7.642;2022-07-22T13:23:06;7.33;;;6.73;;
2706;SDS011;7819;48.046;7.642;2022-07-22T13:25:31;6.87;;;6.27;;
2706;SDS011;7819;48.046;7.642;2022-07-22T13:27:57;7.63;;;7.00;;
2706;SDS011;7819;48.046;7.642;2022-07-22T13:30:23;7.10;;;6.50;;
2706;SDS011;7819;48.046;7.642;2022-07-22T13:32:48;7.20;;;6.57;;
2706;SDS011;7819;48.046;7.642;2022-07-22T13:35:13;8.73;;;6.60;;
2706;SDS011;7819;48.046;7.642;2022-07-22T13:37:38;6.97;;;6.37;;
2706;SDS011;7819;48.046;7.642;2022-07-22T13:40:04;8.00;;;7.40;;
2706;SDS011;7819;48.046;7.642;2022-07-22T13:42:29;8.13;;;7.10;;
2706;SDS011;7819;48.046;7.642;2022-07-22T13:44:54;7.13;;;6.63;;
2706;SDS011;7819;48.046;7.642;2022-07-22T13:47:20;7.43;;;6.83;;
2706;SDS011;7819;48.046;7.642;2022-07-22T13:49:45;7.20;;;6.60;;
2706;SDS011;7819;48.046;7.642;2022-07-22T13:52:11;5.90;;;5.40;;
2706;SDS011;7819;48.046;7.642;2022-07-22T13:54:36;7.00;;;6.30;;
2706;SDS011;7819;48.046;7.642;2022-07-22T13:57:03;6.07;;;5.67;;
2706;SDS011;7819;48.046;7.642;2022-07-22T13:59:29;6.53;;;6.00;;
2706;SDS011;7819;48.046;7.642;2022-07-22T14:01:54;7.23;;;6.63;;
2706;SDS011;7819;48.046;7.642;2022-07-22T14:04:20;6.10;;;5.50;;
2706;SDS011;7819;48.046;7.642;2022-07-22T14:06:45;6.27;;;5.77;;
2706;SDS011;7819;48.046;7.642;2022-07-22T14:09:10;6.67;;;6.07;;
2706;SDS011;7819;48.046;7.642;2022-07-22T14:11:35;7.03;;;4.97;;
2706;SDS011;7819;48.046;7.642;2022-07-22T14:14:00;4.53;;;4.13;;
2706;SDS011;7819;48.046;7.642;2022-07-22T14:16:26;4.80;;;4.40;;
2706;SDS011;7819;48.046;7.642;2022-07-22T14:19:03;4.33;;;3.93;;
2706;SDS011;7819;48.046;7.642;2022-07-22T14:21:29;4.47;;;4.07;;
2706;SDS011;7819;48.046;7.642;2022-07-22T14:23:54;4.93;;;4.03;;
2706;SDS011;7819;48.046;7.642;2022-07-22T14:26:19;4.43;;;3.97;;
2706;SDS011;7819;48.046;7.642;2022-07-22T14:28:44;3.97;;;3.67;;
2706;SDS011;7819;48.046;7.642;2022-07-22T14:31:09;4.37;;;4.00;;
2706;SDS011;7819;48.046;7.642;2022-07-22T14:33:35;4.68;;;4.20;;
2706;SDS011;7819;48.046;7.642;2022-07-22T14:36:00;4.57;;;4.17;;
2706;SDS011;7819;48.046;7.642;2022-07-22T14:38:25;5.27;;;4.53;;
2706;SDS011;7819;48.046;7.642;2022-07-22T14:40:50;4.93;;;4.53;;
2706;SDS011;7819;48.046;7.642;2022-07-22T14:43:15;6.03;;;5.40;;
2706;SDS011;7819;48.046;7.642;2022-07-22T14:45:40;5.23;;;4.73;;
2706;SDS011;7819;48.046;7.642;2022-07-22T14:48:06;4.70;;;4.30;;
2706;SDS011;7819;48.046;7.642;2022-07-22T14:50:31;4.77;;;4.40;;
2706;SDS011;7819;48.046;7.642;2022-07-22T14:52:56;5.70;;;4.90;;
2706;SDS011;7819;48.046;7.642;2022-07-22T14:55:21;5.07;;;4.60;;
2706;SDS011;7819;48.046;7.642;2022-07-22T14:57:46;6.13;;;5.53;;
2706;SDS011;7819;48.046;7.642;2022-07-22T15:00:12;5.45;;;4.22;;
2706;SDS011;7819;48.046;7.642;2022-07-22T15:02:37;5.50;;;5.10;;
2706;SDS011;7819;48.046;7.642;2022-07-22T15:05:02;5.70;;;5.30;;
2706;SDS011;7819;48.046;7.642;2022-07-22T15:07:27;6.60;;;5.97;;
2706;SDS011;7819;48.046;7.642;2022-07-22T15:09:52;5.90;;;5.40;;
2706;SDS011;7819;48.046;7.642;2022-07-22T15:12:18;5.80;;;5.30;;
2706;SDS011;7819;48.046;7.642;2022-07-22T15:14:43;5.93;;;5.20;;